Latest Coastal Weather Observations for Neptune Island

IDT60701

Issued at 3:25 am EST Thursday 24 April 2014 (issued every 10 minutes, with the page automatically refreshed every 10 minutes)

About coastal observations | Map of coastal stations | Coastal observations for TAS | Marine services | Other Formats
Station Details ID: 018115 Name: NEPTUNE ISLAND Lat: -35.34 Lon: 136.12 Height: 32.0 m
Data from the previous 72 hours. | See also: Recent months at Neptune Island
Date/Time
EST
Temp

°C
Wind Pressure Rain
since 9am
mm
Weather Cloud Vis
km
Sea
Height
m
Swell
Dir
 
Speed
knots
Gust
knots
hPa Trend Height
m
Period
s
Dir
24/03:00am 17.5 WSW 22 26 1014.6 - 2.0 - - - - - - -
24/02:30am 17.7 WSW 25 29 1014.5 - 2.0 - - - - - - -
24/02:00am 17.7 W 23 27 1014.3 - 2.0 - - - - - - -
24/01:30am 17.9 W 22 26 1014.4 - 2.0 - - - - - - -
24/01:00am 17.6 W 21 24 1014.4 - 2.0 - - - - - - -
24/12:30am 17.4 W 22 26 1014.3 - 2.0 - - - - - - -
24/12:00am 17.3 W 22 26 1014.5 - 1.8 - - - - - - -
 
Date/Time
EST
Temp

°C
Wind Pressure Rain
since 9am
mm
Weather Cloud Vis
km
Sea
Height
m
Swell
Dir
 
Speed
knots
Gust
knots
hPa Trend Height
m
Period
s
Dir
23/11:30pm 17.3 W 21 24 1014.8 - 1.8 - - - - - - -
23/11:00pm 17.2 W 19 22 1014.9 - 1.8 - - - - - - -
23/10:30pm 17.1 W 20 23 1014.7 - 1.8 - - - - - - -
23/10:00pm 17.1 W 21 25 1014.7 - 1.8 - - - - - - -
23/09:30pm 17.1 W 19 22 1014.3 - 1.8 - - - - - - -
23/09:00pm 16.8 W 18 21 1014.2 - 1.8 - - - - - - -
23/08:30pm 16.7 WNW 13 18 1014.2 - 1.8 - - - - - - -
23/08:00pm 16.7 WNW 14 16 1014.2 - 1.8 - - - - - - -
23/07:30pm 16.5 WNW 14 17 1014.1 - 1.8 - - - - - - -
23/07:29pm 16.4 WNW 14 17 1014.1 - 1.8 - - - - - - -
23/07:00pm 16.1 W 21 28 1013.7 - 1.8 - - - - - - -
23/06:59pm 16.0 W 22 28 1013.7 - 1.8 - - - - - - -
23/06:43pm 16.2 WNW 22 23 1013.6 - 1.4 - - - - - - -
23/06:30pm 16.1 W 21 24 1013.4 - 1.2 - - - - - - -
23/06:00pm 16.3 WNW 14 24 1013.6 - 0.2 - - - - - - -
23/05:30pm 17.0 W 24 31 1013.5 - 0.0 - - - - - - -
23/05:00pm 17.9 WNW 23 27 1013.3 - 0.0 - - - - - - -
23/04:30pm 18.1 WNW 21 26 1013.3 - 0.0 - - - - - - -
23/04:00pm 18.4 NW 20 23 1013.4 - 0.0 - - - - - - -
23/03:30pm 18.8 NW 18 21 1013.3 - 0.0 - - - - - - -
23/03:00pm 19.3 NW 15 17 1013.4 - 0.0 - - - - - - -
23/02:30pm 18.9 NW 14 17 1013.5 - 0.0 - - - - - - -
23/02:00pm 19.4 NNW 15 17 1013.9 - 0.0 - - - - - - -
23/01:30pm 18.8 NNW 15 18 1014.3 - 0.0 - - - - - - -
23/01:00pm 18.9 NNW 16 17 1015.1 - 0.0 - - - - - - -
23/12:30pm 18.3 NNW 15 18 1015.6 - 0.0 - - - - - - -
23/12:00pm 17.7 NNW 15 17 1016.0 - 0.0 - - - - - - -
23/11:30am 18.0 NNW 13 15 1016.4 - 0.0 - - - - - - -
23/11:00am 17.3 NNW 14 17 1017.1 - 0.0 - - - - - - -
23/10:30am 17.5 NNW 13 16 1017.4 - 0.0 - - - - - - -
23/10:00am 17.0 NW 12 15 1017.6 - 0.0 - - - - - - -
23/09:30am 16.8 NW 13 16 1017.7 - 0.0 - - - - - - -
23/09:00am 16.3 NW 13 16 1017.6 - 0.0 - - - - - - -
23/08:30am 15.8 NW 12 14 1017.6 - 0.0 - - - - - - -
23/08:00am 15.7 NNW 10 13 1017.2 - 0.0 - - - - - - -
23/07:30am 15.3 NNW 10 14 1016.7 - 0.0 - - - - - - -
23/07:00am 15.4 NNW 9 12 1016.6 - 0.0 - - - - - - -
23/06:30am 15.4 N 9 11 1016.3 - 0.0 - - - - - - -
23/06:00am 15.3 N 10 12 1016.4 - 0.0 - - - - - - -
23/05:30am 15.1 S 8 10 1016.4 - 0.0 - - - - - - -
23/05:00am 14.9 S 8 10 1016.4 - 0.0 - - - - - - -
23/04:30am 14.9 S 7 10 1016.5 - 0.0 - - - - - - -
23/04:00am 14.9 S 6 8 1016.6 - 0.0 - - - - - - -
23/03:30am 14.6 S 7 8 1016.9 - 0.0 - - - - - - -
23/03:00am 14.7 SSE 5 6 1017.3 - 0.0 - - - - - - -
23/02:30am 14.5 SSE 5 6 1017.6 - 0.0 - - - - - - -
23/02:00am 15.0 SSE 4 5 1018.1 - 0.0 - - - - - - -
23/01:30am 15.1 SSE 4 4 1018.2 - 0.0 - - - - - - -
23/01:00am 15.3 SSE 2 4 1018.2 - 0.0 - - - - - - -
23/12:30am 15.3 SSE 2 3 1018.2 - 0.0 - - - - - - -
23/12:00am 15.4 SSE 2 4 1018.6 - 0.0 - - - - - - -
 
Date/Time
EST
Temp

°C
Wind Pressure Rain
since 9am
mm
Weather Cloud Vis
km
Sea
Height
m
Swell
Dir
 
Speed
knots
Gust
knots
hPa Trend Height
m
Period
s
Dir
22/11:30pm 15.4 S 1 3 1018.9 - 0.0 - - - - - - -
22/11:00pm 15.5 SSE 4 6 1019.0 - 0.0 - - - - - - -
22/10:30pm 15.7 SSE 5 7 1019.1 - 0.0 - - - - - - -
22/10:00pm 15.8 S 6 8 1019.2 - 0.0 - - - - - - -
22/09:30pm 15.9 S 7 9 1019.0 - 0.0 - - - - - - -
22/09:00pm 16.0 S 7 9 1019.0 - 0.0 - - - - - - -
22/08:30pm 15.8 SSE 7 9 1018.7 - 0.0 - - - - - - -
22/08:00pm 16.0 S 7 8 1019.0 - 0.0 - - - - - - -
22/07:30pm 16.2 S 8 10 1018.7 - 0.0 - - - - - - -
22/07:00pm 16.2 S 9 11 1018.6 - 0.0 - - - - - - -
22/06:30pm 16.5 S 9 12 1018.3 - 0.0 - - - - - - -
22/06:00pm 16.5 S 12 14 1018.1 - 0.0 - - - - - - -
22/05:30pm 16.8 S 13 16 1018.0 - 0.0 - - - - - - -
22/05:00pm 17.1 SSW 7 9 1018.0 - 0.0 - - - - - - -
22/04:30pm 17.4 SSW 9 11 1018.0 - 0.0 - - - - - - -
22/04:00pm 17.6 SW 10 13 1017.9 - 0.0 - - - - - - -
22/03:30pm 18.2 SW 11 13 1017.7 - 0.0 - - - - - - -
22/03:00pm 18.3 SW 11 14 1017.7 - 0.0 - - - - - - -
22/02:30pm 17.5 SW 12 14 1017.7 - 0.0 - - - - - - -
22/02:00pm 18.0 SW 11 14 1017.8 - 0.0 - - - - - - -
22/01:30pm 17.5 SW 11 14 1018.0 - 0.0 - - - - - - -
22/01:00pm 18.5 SSW 11 13 1018.2 - 0.0 - - - - - - -
22/12:30pm 17.7 SW 12 15 1018.2 - 0.0 - - - - - - -
22/12:00pm 18.2 SSW 12 15 1018.4 - 0.0 - - - - - - -
22/11:30am 17.8 SSW 12 15 1018.4 - 0.0 - - - - - - -
22/11:00am 18.1 SSW 12 15 1018.5 - 0.0 - - - - - - -
22/10:30am 17.1 S 12 15 1018.4 - 0.0 - - - - - - -
22/10:00am 16.8 SSW 13 16 1018.3 - 0.0 - - - - - - -
22/09:30am 16.8 SSW 16 21 1018.1 - 0.2 - - - - - - -
22/09:00am 16.4 SSW 17 20 1018.0 - 0.2 - - - - - - -
22/08:30am 15.9 SSW 17 21 1017.7 - 0.2 - - - - - - -
22/08:00am 15.8 SSW 18 22 1017.1 - 0.2 - - - - - - -
22/07:30am 15.6 SSW 19 23 1016.4 - 0.2 - - - - - - -
22/07:00am 15.7 SSW 18 23 1015.8 - 0.2 - - - - - - -
22/06:30am 15.9 SSW 19 22 1015.5 - 0.2 - - - - - - -
22/06:00am 15.8 SSW 18 21 1015.3 - 0.2 - - - - - - -
22/05:30am 15.7 SSW 19 23 1015.1 - 0.2 - - - - - - -
22/05:00am 16.1 SSW 17 21 1014.8 - 0.2 - - - - - - -
22/04:30am 16.0 SSW 18 21 1014.6 - 0.2 - - - - - - -
22/04:00am 16.1 SSW 17 21 1014.5 - 0.2 - - - - - - -
22/03:30am 16.1 SSW 17 22 1014.2 - 0.2 - - - - - - -
22/03:00am 16.2 SSW 17 20 1014.0 - 0.2 - - - - - - -
22/02:30am 16.4 SSW 18 21 1013.6 - 0.2 - - - - - - -
22/02:00am 16.2 SSW 18 21 1013.4 - 0.2 - - - - - - -
22/01:30am 16.4 SSW 18 21 1013.2 - 0.2 - - - - - - -
22/01:00am 16.4 S 18 23 1012.9 - 0.2 - - - - - - -
22/12:30am 16.2 S 18 21 1012.9 - 0.0 - - - - - - -
22/12:00am 16.2 S 23 28 1012.5 - 0.0 - - - - - - -
 
Date/Time
EST
Temp

°C
Wind Pressure Rain
since 9am
mm
Weather Cloud Vis
km
Sea
Height
m
Swell
Dir
 
Speed
knots
Gust
knots
hPa Trend Height
m
Period
s
Dir
21/11:30pm 16.6 SSW 20 25 1013.3 - 0.0 - - - - - - -
21/11:00pm 16.8 SSW 22 25 1012.5 - 0.0 - - - - - - -
21/10:30pm 17.5 SSW 20 26 1012.1 - 0.0 - - - - - - -
21/10:00pm 17.5 SSW 21 26 1011.9 - 0.0 - - - - - - -
21/09:30pm 17.5 SSW 24 29 1011.1 - 0.0 - - - - - - -
21/09:00pm 17.5 SSW 19 24 1010.9 - 0.0 - - - - - - -
21/08:30pm 18.0 SSW 17 23 1010.6 - 0.0 - - - - - - -
21/08:00pm 18.1 SSW 19 23 1010.1 - 0.0 - - - - - - -
21/07:30pm 18.3 SW 16 19 1010.5 - 0.0 - - - - - - -
21/07:00pm 18.3 SSW 11 15 1009.5 - 0.0 - - - - - - -
21/06:30pm 18.6 SW 14 17 1009.7 - 0.0 - - - - - - -
21/06:00pm 18.7 SW 19 24 1009.6 - 0.0 - - - - - - -
21/05:56pm 18.8 SW 20 23 1009.7 - 0.0 - - - - - - -
21/05:30pm 19.7 W 11 16 1009.1 - 0.0 - - - - - - -
21/05:00pm 20.1 WNW 17 19 1009.2 - 0.0 - - - - - - -
21/04:30pm 20.1 WNW 18 24 1008.4 - 0.0 - - - - - - -
21/04:00pm 20.2 NW 19 23 1008.3 - 0.0 - - - - - - -
21/03:30pm 20.4 NNW 20 24 1007.8 - 0.0 - - - - - - -
21/03:00pm 20.7 NW 21 24 1008.2 - 0.0 - - - - - - -
21/02:30pm 21.0 NW 20 23 1008.2 - 0.0 - - - - - - -
21/02:00pm 20.5 NNW 23 27 1008.5 - 0.0 - - - - - - -
21/01:30pm 20.7 NW 23 29 1009.1 - 0.0 - - - - - - -
21/01:00pm 21.7 WNW 25 30 1009.5 - 0.0 - - - - - - -
21/12:30pm 21.8 WNW 25 31 1009.1 - 0.0 - - - - - - -
21/12:00pm 21.6 NW 27 32 1008.6 - 0.0 - - - - - - -
21/11:30am 21.8 NW 30 37 1008.6 - 0.0 - - - - - - -
21/11:00am 21.7 NW 22 28 1009.2 - 0.0 - - - - - - -
21/10:30am 21.1 NW 19 25 1009.5 - 0.0 - - - - - - -
21/10:00am 21.4 NW 24 29 1009.5 - 0.0 - - - - - - -
21/09:30am 21.1 NNW 25 29 1009.2 - 0.0 - - - - - - -
21/09:00am 21.3 NNW 24 30 1008.8 - 0.0 - - - - - - -
21/08:30am 20.8 N 21 25 1008.6 - 0.0 - - - - - - -
21/08:00am 21.1 N 24 30 1008.2 - 0.0 - - - - - - -
21/07:30am 19.6 N 21 25 1008.2 - 0.0 - - - - - - -
21/07:00am 19.6 N 24 27 1008.2 - 0.0 - - - - - - -
21/06:30am 19.2 N 22 25 1008.3 - 0.0 - - - - - - -
21/06:00am 19.0 N 20 25 1008.7 - 0.0 - - - - - - -
21/05:30am 18.8 N 21 23 1008.7 - 0.0 - - - - - - -
21/05:00am 18.8 N 23 27 1009.1 - 0.0 - - - - - - -
21/04:30am 18.6 NNE 24 27 1008.9 - 0.0 - - - - - - -
21/04:00am 18.6 NNE 22 25 1009.4 - 0.0 - - - - - - -

Other Formats:

Comma delimited format used in spreadsheet applications
http://www.bom.gov.au/fwo/IDT60701/IDT60701.94804.axf

JavaScript Object Notation format (JSON) in row-major order
http://www.bom.gov.au/fwo/IDT60701/IDT60701.94804.json